sensor_id;sensor_type;location;lat;lon;timestamp;temperature;humidity
21672;DHT22;10997;52.242;8.168;2023-05-29T00:01:51;11.00;99.90
21672;DHT22;10997;52.242;8.168;2023-05-29T00:06:52;11.00;99.90
21672;DHT22;10997;52.242;8.168;2023-05-29T00:11:53;10.90;99.90
21672;DHT22;10997;52.242;8.168;2023-05-29T00:16:53;10.90;99.90
21672;DHT22;10997;52.242;8.168;2023-05-29T00:21:54;10.90;99.90
21672;DHT22;10997;52.242;8.168;2023-05-29T00:26:54;10.80;99.90
21672;DHT22;10997;52.242;8.168;2023-05-29T00:31:55;10.70;99.90
21672;DHT22;10997;52.242;8.168;2023-05-29T00:36:56;10.70;99.90
21672;DHT22;10997;52.242;8.168;2023-05-29T00:41:57;10.60;99.90
21672;DHT22;10997;52.242;8.168;2023-05-29T00:46:58;10.60;99.90
21672;DHT22;10997;52.242;8.168;2023-05-29T00:51:59;10.50;99.90
21672;DHT22;10997;52.242;8.168;2023-05-29T00:57:01;10.40;99.90
21672;DHT22;10997;52.242;8.168;2023-05-29T01:02:03;10.40;99.90
21672;DHT22;10997;52.242;8.168;2023-05-29T01:07:04;10.40;99.90
21672;DHT22;10997;52.242;8.168;2023-05-29T01:12:31;10.30;99.90
21672;DHT22;10997;52.242;8.168;2023-05-29T01:28:52;10.30;99.90
21672;DHT22;10997;52.242;8.168;2023-05-29T01:33:57;10.30;99.90
21672;DHT22;10997;52.242;8.168;2023-05-29T01:38:59;10.30;99.90
21672;DHT22;10997;52.242;8.168;2023-05-29T01:44:02;10.30;99.90
21672;DHT22;10997;52.242;8.168;2023-05-29T01:49:04;10.30;99.90
21672;DHT22;10997;52.242;8.168;2023-05-29T01:54:06;10.30;99.90
21672;DHT22;10997;52.242;8.168;2023-05-29T01:59:08;10.30;99.90
21672;DHT22;10997;52.242;8.168;2023-05-29T02:04:09;10.30;99.90
21672;DHT22;10997;52.242;8.168;2023-05-29T02:09:09;10.20;99.90
21672;DHT22;10997;52.242;8.168;2023-05-29T02:14:10;10.20;99.90
21672;DHT22;10997;52.242;8.168;2023-05-29T02:19:11;10.20;99.90
21672;DHT22;10997;52.242;8.168;2023-05-29T02:24:11;10.30;99.90
21672;DHT22;10997;52.242;8.168;2023-05-29T02:29:12;10.30;99.90
21672;DHT22;10997;52.242;8.168;2023-05-29T02:34:13;10.20;99.90
21672;DHT22;10997;52.242;8.168;2023-05-29T02:39:13;10.20;99.90
21672;DHT22;10997;52.242;8.168;2023-05-29T02:44:14;10.20;99.90
21672;DHT22;10997;52.242;8.168;2023-05-29T02:49:14;10.20;99.90
21672;DHT22;10997;52.242;8.168;2023-05-29T02:54:15;10.20;99.90
21672;DHT22;10997;52.242;8.168;2023-05-29T02:59:16;10.20;99.90
21672;DHT22;10997;52.242;8.168;2023-05-29T03:04:16;10.20;99.90
21672;DHT22;10997;52.242;8.168;2023-05-29T03:09:17;10.20;99.90
21672;DHT22;10997;52.242;8.168;2023-05-29T03:14:18;10.10;99.90
21672;DHT22;10997;52.242;8.168;2023-05-29T03:19:19;10.10;99.90
21672;DHT22;10997;52.242;8.168;2023-05-29T03:24:20;10.10;99.90
21672;DHT22;10997;52.242;8.168;2023-05-29T03:29:21;10.00;99.90
21672;DHT22;10997;52.242;8.168;2023-05-29T03:34:22;10.00;99.90
21672;DHT22;10997;52.242;8.168;2023-05-29T03:39:22;10.00;99.90
21672;DHT22;10997;52.242;8.168;2023-05-29T03:44:23;10.00;99.90
21672;DHT22;10997;52.242;8.168;2023-05-29T03:49:23;9.90;99.90
21672;DHT22;10997;52.242;8.168;2023-05-29T03:54:24;9.90;99.90
21672;DHT22;10997;52.242;8.168;2023-05-29T03:59:25;9.90;99.90
21672;DHT22;10997;52.242;8.168;2023-05-29T04:04:25;9.80;99.90
21672;DHT22;10997;52.242;8.168;2023-05-29T04:09:27;9.90;99.90
21672;DHT22;10997;52.242;8.168;2023-05-29T04:14:28;9.90;99.90
21672;DHT22;10997;52.242;8.168;2023-05-29T04:19:29;10.00;99.90
21672;DHT22;10997;52.242;8.168;2023-05-29T04:24:29;10.00;99.90
21672;DHT22;10997;52.242;8.168;2023-05-29T04:29:31;10.00;99.90
21672;DHT22;10997;52.242;8.168;2023-05-29T04:34:35;10.00;99.90
21672;DHT22;10997;52.242;8.168;2023-05-29T04:39:35;10.10;99.90
21672;DHT22;10997;52.242;8.168;2023-05-29T04:44:36;10.30;99.90
21672;DHT22;10997;52.242;8.168;2023-05-29T04:49:37;10.40;99.90
21672;DHT22;10997;52.242;8.168;2023-05-29T04:54:38;10.40;99.90
21672;DHT22;10997;52.242;8.168;2023-05-29T04:59:38;10.50;99.90
21672;DHT22;10997;52.242;8.168;2023-05-29T05:04:39;10.50;99.90
21672;DHT22;10997;52.242;8.168;2023-05-29T05:09:40;10.40;99.90
21672;DHT22;10997;52.242;8.168;2023-05-29T05:14:40;10.50;99.90
21672;DHT22;10997;52.242;8.168;2023-05-29T05:19:41;10.60;99.90
21672;DHT22;10997;52.242;8.168;2023-05-29T05:24:41;10.70;99.90
21672;DHT22;10997;52.242;8.168;2023-05-29T05:29:42;10.80;99.90
21672;DHT22;10997;52.242;8.168;2023-05-29T05:34:43;10.90;99.90
21672;DHT22;10997;52.242;8.168;2023-05-29T05:39:43;10.90;99.90
21672;DHT22;10997;52.242;8.168;2023-05-29T05:44:44;11.00;99.90
21672;DHT22;10997;52.242;8.168;2023-05-29T05:49:45;11.00;99.90
21672;DHT22;10997;52.242;8.168;2023-05-29T05:54:45;11.10;99.90
21672;DHT22;10997;52.242;8.168;2023-05-29T05:59:46;11.10;99.90
21672;DHT22;10997;52.242;8.168;2023-05-29T06:04:46;11.20;99.90
21672;DHT22;10997;52.242;8.168;2023-05-29T06:09:48;11.40;99.90
21672;DHT22;10997;52.242;8.168;2023-05-29T06:14:49;11.60;99.90
21672;DHT22;10997;52.242;8.168;2023-05-29T06:19:50;11.90;99.90
21672;DHT22;10997;52.242;8.168;2023-05-29T06:24:50;11.80;99.90
21672;DHT22;10997;52.242;8.168;2023-05-29T06:29:51;11.80;99.90
21672;DHT22;10997;52.242;8.168;2023-05-29T06:34:52;11.80;99.90
21672;DHT22;10997;52.242;8.168;2023-05-29T06:39:53;12.00;99.90
21672;DHT22;10997;52.242;8.168;2023-05-29T06:44:53;11.90;99.90
21672;DHT22;10997;52.242;8.168;2023-05-29T06:49:54;11.90;99.90
21672;DHT22;10997;52.242;8.168;2023-05-29T06:54:54;12.10;99.90
21672;DHT22;10997;52.242;8.168;2023-05-29T06:59:57;12.50;99.90
21672;DHT22;10997;52.242;8.168;2023-05-29T07:04:58;12.80;99.90
21672;DHT22;10997;52.242;8.168;2023-05-29T07:09:58;12.90;99.90
21672;DHT22;10997;52.242;8.168;2023-05-29T07:14:59;13.10;99.90
21672;DHT22;10997;52.242;8.168;2023-05-29T07:19:59;13.40;99.90
21672;DHT22;10997;52.242;8.168;2023-05-29T07:25:00;13.70;99.90
21672;DHT22;10997;52.242;8.168;2023-05-29T07:30:01;13.90;99.90
21672;DHT22;10997;52.242;8.168;2023-05-29T07:35:02;14.00;99.90
21672;DHT22;10997;52.242;8.168;2023-05-29T07:40:03;14.20;99.90
21672;DHT22;10997;52.242;8.168;2023-05-29T07:45:07;14.20;99.90
21672;DHT22;10997;52.242;8.168;2023-05-29T07:50:08;13.80;99.90
21672;DHT22;10997;52.242;8.168;2023-05-29T07:55:10;13.90;99.90
21672;DHT22;10997;52.242;8.168;2023-05-29T08:00:11;14.10;99.90
21672;DHT22;10997;52.242;8.168;2023-05-29T08:05:15;14.40;99.90
21672;DHT22;10997;52.242;8.168;2023-05-29T08:10:15;14.60;99.90
21672;DHT22;10997;52.242;8.168;2023-05-29T08:15:16;14.60;99.90
21672;DHT22;10997;52.242;8.168;2023-05-29T08:20:17;14.70;99.90
21672;DHT22;10997;52.242;8.168;2023-05-29T08:25:17;14.60;99.90
21672;DHT22;10997;52.242;8.168;2023-05-29T08:30:18;14.70;99.90
21672;DHT22;10997;52.242;8.168;2023-05-29T08:35:19;15.10;99.90
21672;DHT22;10997;52.242;8.168;2023-05-29T08:40:19;15.30;99.90
21672;DHT22;10997;52.242;8.168;2023-05-29T08:45:22;15.30;99.90
21672;DHT22;10997;52.242;8.168;2023-05-29T08:50:22;15.30;99.90
21672;DHT22;10997;52.242;8.168;2023-05-29T08:55:23;15.20;99.90
21672;DHT22;10997;52.242;8.168;2023-05-29T09:00:24;15.40;99.90
21672;DHT22;10997;52.242;8.168;2023-05-29T09:05:29;15.50;99.90
21672;DHT22;10997;52.242;8.168;2023-05-29T09:10:30;16.00;99.90
21672;DHT22;10997;52.242;8.168;2023-05-29T09:15:31;16.20;99.90
21672;DHT22;10997;52.242;8.168;2023-05-29T09:20:31;16.40;99.90
21672;DHT22;10997;52.242;8.168;2023-05-29T09:25:34;16.20;99.90
21672;DHT22;10997;52.242;8.168;2023-05-29T09:30:39;16.50;99.90
21672;DHT22;10997;52.242;8.168;2023-05-29T09:35:42;16.60;99.90
21672;DHT22;10997;52.242;8.168;2023-05-29T09:40:43;16.40;99.90
21672;DHT22;10997;52.242;8.168;2023-05-29T09:45:47;16.70;99.90
21672;DHT22;10997;52.242;8.168;2023-05-29T09:50:48;17.30;99.90
21672;DHT22;10997;52.242;8.168;2023-05-29T09:55:53;17.50;99.90
21672;DHT22;10997;52.242;8.168;2023-05-29T10:00:54;17.90;99.90
21672;DHT22;10997;52.242;8.168;2023-05-29T10:05:57;17.90;99.90
21672;DHT22;10997;52.242;8.168;2023-05-29T10:11:01;18.10;99.90
21672;DHT22;10997;52.242;8.168;2023-05-29T10:16:03;17.90;99.90
21672;DHT22;10997;52.242;8.168;2023-05-29T10:21:07;17.80;99.90
21672;DHT22;10997;52.242;8.168;2023-05-29T10:26:18;17.80;99.90
21672;DHT22;10997;52.242;8.168;2023-05-29T10:31:26;18.00;99.90
21672;DHT22;10997;52.242;8.168;2023-05-29T10:36:35;18.10;99.90
21672;DHT22;10997;52.242;8.168;2023-05-29T10:41:38;18.50;99.90
21672;DHT22;10997;52.242;8.168;2023-05-29T10:51:51;18.50;99.40
21672;DHT22;10997;52.242;8.168;2023-05-29T10:56:55;18.60;99.70
21672;DHT22;10997;52.242;8.168;2023-05-29T11:01:57;18.80;99.30
21672;DHT22;10997;52.242;8.168;2023-05-29T11:06:58;19.10;99.30
21672;DHT22;10997;52.242;8.168;2023-05-29T11:12:24;19.20;98.70
21672;DHT22;10997;52.242;8.168;2023-05-29T11:27:49;19.30;98.50
21672;DHT22;10997;52.242;8.168;2023-05-29T11:32:52;19.30;97.50
21672;DHT22;10997;52.242;8.168;2023-05-29T11:37:53;19.30;97.50
21672;DHT22;10997;52.242;8.168;2023-05-29T11:42:55;19.20;97.80
21672;DHT22;10997;52.242;8.168;2023-05-29T11:48:00;19.60;98.40
21672;DHT22;10997;52.242;8.168;2023-05-29T11:53:01;20.00;97.20
21672;DHT22;10997;52.242;8.168;2023-05-29T11:58:03;19.40;97.50
21672;DHT22;10997;52.242;8.168;2023-05-29T12:03:05;19.70;97.10
21672;DHT22;10997;52.242;8.168;2023-05-29T12:08:06;19.80;96.60
21672;DHT22;10997;52.242;8.168;2023-05-29T12:13:09;19.80;96.10
21672;DHT22;10997;52.242;8.168;2023-05-29T12:18:10;20.30;95.90
21672;DHT22;10997;52.242;8.168;2023-05-29T12:23:11;20.20;94.60
21672;DHT22;10997;52.242;8.168;2023-05-29T12:28:16;20.30;93.30
21672;DHT22;10997;52.242;8.168;2023-05-29T12:33:31;20.60;92.40
21672;DHT22;10997;52.242;8.168;2023-05-29T12:38:32;20.70;92.10
21672;DHT22;10997;52.242;8.168;2023-05-29T12:43:33;20.50;91.60
21672;DHT22;10997;52.242;8.168;2023-05-29T12:48:33;20.20;90.50
21672;DHT22;10997;52.242;8.168;2023-05-29T12:53:34;20.20;90.20
21672;DHT22;10997;52.242;8.168;2023-05-29T12:58:35;20.30;86.70
21672;DHT22;10997;52.242;8.168;2023-05-29T13:03:35;20.40;84.60
21672;DHT22;10997;52.242;8.168;2023-05-29T13:08:36;20.60;84.40
21672;DHT22;10997;52.242;8.168;2023-05-29T13:13:37;20.70;85.70
21672;DHT22;10997;52.242;8.168;2023-05-29T13:18:37;20.80;84.40
21672;DHT22;10997;52.242;8.168;2023-05-29T13:23:38;21.00;82.70
21672;DHT22;10997;52.242;8.168;2023-05-29T13:28:38;20.90;79.30
21672;DHT22;10997;52.242;8.168;2023-05-29T13:33:39;21.00;78.10
21672;DHT22;10997;52.242;8.168;2023-05-29T13:38:40;21.50;76.80
21672;DHT22;10997;52.242;8.168;2023-05-29T13:43:40;21.30;73.70
21672;DHT22;10997;52.242;8.168;2023-05-29T13:48:41;21.20;74.00
21672;DHT22;10997;52.242;8.168;2023-05-29T13:53:42;21.10;74.30
21672;DHT22;10997;52.242;8.168;2023-05-29T13:58:42;21.00;76.10
21672;DHT22;10997;52.242;8.168;2023-05-29T14:03:43;20.80;77.40
21672;DHT22;10997;52.242;8.168;2023-05-29T14:08:43;21.10;77.70
21672;DHT22;10997;52.242;8.168;2023-05-29T14:13:44;20.80;76.10
21672;DHT22;10997;52.242;8.168;2023-05-29T14:18:45;20.90;76.70
21672;DHT22;10997;52.242;8.168;2023-05-29T14:23:46;21.40;77.30
21672;DHT22;10997;52.242;8.168;2023-05-29T14:28:46;21.30;76.80
21672;DHT22;10997;52.242;8.168;2023-05-29T14:33:47;21.00;76.10
21672;DHT22;10997;52.242;8.168;2023-05-29T14:38:47;20.90;77.60
21672;DHT22;10997;52.242;8.168;2023-05-29T14:43:49;21.30;77.90
21672;DHT22;10997;52.242;8.168;2023-05-29T14:48:52;21.40;78.30
21672;DHT22;10997;52.242;8.168;2023-05-29T14:53:52;21.80;79.20
21672;DHT22;10997;52.242;8.168;2023-05-29T14:58:53;21.80;77.70
21672;DHT22;10997;52.242;8.168;2023-05-29T15:03:54;21.50;76.90
21672;DHT22;10997;52.242;8.168;2023-05-29T15:08:54;21.50;77.80
21672;DHT22;10997;52.242;8.168;2023-05-29T15:13:56;21.60;78.00
21672;DHT22;10997;52.242;8.168;2023-05-29T15:18:57;21.70;76.30
21672;DHT22;10997;52.242;8.168;2023-05-29T15:23:57;21.50;76.00
21672;DHT22;10997;52.242;8.168;2023-05-29T15:28:58;21.70;75.20
21672;DHT22;10997;52.242;8.168;2023-05-29T15:33:58;21.70;74.30
21672;DHT22;10997;52.242;8.168;2023-05-29T15:38:59;21.50;77.00
21672;DHT22;10997;52.242;8.168;2023-05-29T15:43:59;21.40;75.00
21672;DHT22;10997;52.242;8.168;2023-05-29T15:49:00;21.10;75.30
21672;DHT22;10997;52.242;8.168;2023-05-29T15:54:00;21.30;75.00
21672;DHT22;10997;52.242;8.168;2023-05-29T15:59:01;21.50;74.30
21672;DHT22;10997;52.242;8.168;2023-05-29T16:04:03;21.40;72.60
21672;DHT22;10997;52.242;8.168;2023-05-29T16:09:03;21.30;72.90
21672;DHT22;10997;52.242;8.168;2023-05-29T16:14:04;21.30;72.40
21672;DHT22;10997;52.242;8.168;2023-05-29T16:19:05;21.40;72.90
21672;DHT22;10997;52.242;8.168;2023-05-29T16:24:08;21.40;72.40
21672;DHT22;10997;52.242;8.168;2023-05-29T16:29:08;21.20;71.70
21672;DHT22;10997;52.242;8.168;2023-05-29T16:34:09;21.00;71.70
21672;DHT22;10997;52.242;8.168;2023-05-29T16:39:10;20.80;71.80
21672;DHT22;10997;52.242;8.168;2023-05-29T16:44:11;20.70;73.10
21672;DHT22;10997;52.242;8.168;2023-05-29T16:49:11;20.60;71.60
21672;DHT22;10997;52.242;8.168;2023-05-29T16:54:12;20.40;71.00
21672;DHT22;10997;52.242;8.168;2023-05-29T16:59:13;20.30;70.10
21672;DHT22;10997;52.242;8.168;2023-05-29T17:04:14;20.30;69.30
21672;DHT22;10997;52.242;8.168;2023-05-29T17:09:14;20.20;68.80
21672;DHT22;10997;52.242;8.168;2023-05-29T17:14:15;20.20;68.00
21672;DHT22;10997;52.242;8.168;2023-05-29T17:19:15;20.10;66.30
21672;DHT22;10997;52.242;8.168;2023-05-29T17:24:16;20.30;65.70
21672;DHT22;10997;52.242;8.168;2023-05-29T17:29:16;20.40;64.60
21672;DHT22;10997;52.242;8.168;2023-05-29T17:34:17;20.10;63.10
21672;DHT22;10997;52.242;8.168;2023-05-29T17:39:18;19.50;60.40
21672;DHT22;10997;52.242;8.168;2023-05-29T17:44:18;19.30;60.30
21672;DHT22;10997;52.242;8.168;2023-05-29T17:49:19;19.10;58.90
21672;DHT22;10997;52.242;8.168;2023-05-29T17:54:19;18.70;59.20
21672;DHT22;10997;52.242;8.168;2023-05-29T17:59:20;18.80;59.90
21672;DHT22;10997;52.242;8.168;2023-05-29T18:04:21;18.70;60.40
21672;DHT22;10997;52.242;8.168;2023-05-29T18:09:21;18.70;60.60
21672;DHT22;10997;52.242;8.168;2023-05-29T18:14:22;18.50;60.70
21672;DHT22;10997;52.242;8.168;2023-05-29T18:19:22;18.10;60.40
21672;DHT22;10997;52.242;8.168;2023-05-29T18:24:23;17.70;60.00
21672;DHT22;10997;52.242;8.168;2023-05-29T18:29:24;17.50;60.40
21672;DHT22;10997;52.242;8.168;2023-05-29T18:34:24;17.30;59.50
21672;DHT22;10997;52.242;8.168;2023-05-29T18:39:25;17.60;59.70
21672;DHT22;10997;52.242;8.168;2023-05-29T18:44:26;17.40;58.30
21672;DHT22;10997;52.242;8.168;2023-05-29T18:49:26;17.20;58.30
21672;DHT22;10997;52.242;8.168;2023-05-29T18:54:27;17.20;59.00
21672;DHT22;10997;52.242;8.168;2023-05-29T18:59:28;17.10;58.90
21672;DHT22;10997;52.242;8.168;2023-05-29T19:04:28;16.70;59.30
21672;DHT22;10997;52.242;8.168;2023-05-29T19:09:30;16.60;59.60
21672;DHT22;10997;52.242;8.168;2023-05-29T19:14:30;16.40;59.00
21672;DHT22;10997;52.242;8.168;2023-05-29T19:19:31;16.50;59.80
21672;DHT22;10997;52.242;8.168;2023-05-29T19:24:32;16.40;59.90
21672;DHT22;10997;52.242;8.168;2023-05-29T19:29:33;15.70;62.20
21672;DHT22;10997;52.242;8.168;2023-05-29T19:34:33;15.40;64.40
21672;DHT22;10997;52.242;8.168;2023-05-29T19:39:34;15.00;66.70
21672;DHT22;10997;52.242;8.168;2023-05-29T19:44:34;14.70;68.00
21672;DHT22;10997;52.242;8.168;2023-05-29T19:49:35;14.50;69.00
21672;DHT22;10997;52.242;8.168;2023-05-29T19:54:36;14.20;69.90
21672;DHT22;10997;52.242;8.168;2023-05-29T19:59:37;14.10;70.70
21672;DHT22;10997;52.242;8.168;2023-05-29T20:04:37;13.90;71.40
21672;DHT22;10997;52.242;8.168;2023-05-29T20:09:39;13.70;73.00
21672;DHT22;10997;52.242;8.168;2023-05-29T20:14:39;13.60;73.70
21672;DHT22;10997;52.242;8.168;2023-05-29T20:19:41;13.40;75.70
21672;DHT22;10997;52.242;8.168;2023-05-29T20:24:42;13.30;76.10
21672;DHT22;10997;52.242;8.168;2023-05-29T20:29:43;13.20;77.50
21672;DHT22;10997;52.242;8.168;2023-05-29T20:34:44;13.00;79.20
21672;DHT22;10997;52.242;8.168;2023-05-29T20:39:47;12.90;80.30
21672;DHT22;10997;52.242;8.168;2023-05-29T20:44:47;12.70;81.90
21672;DHT22;10997;52.242;8.168;2023-05-29T20:49:49;12.60;83.30
21672;DHT22;10997;52.242;8.168;2023-05-29T20:54:51;12.50;84.40
21672;DHT22;10997;52.242;8.168;2023-05-29T20:59:53;12.30;86.90
21672;DHT22;10997;52.242;8.168;2023-05-29T21:04:54;12.10;88.80
21672;DHT22;10997;52.242;8.168;2023-05-29T21:09:55;11.90;90.30
21672;DHT22;10997;52.242;8.168;2023-05-29T21:14:56;11.90;91.10
21672;DHT22;10997;52.242;8.168;2023-05-29T21:19:56;11.80;91.80
21672;DHT22;10997;52.242;8.168;2023-05-29T21:25:01;11.70;92.60
21672;DHT22;10997;52.242;8.168;2023-05-29T21:30:04;11.70;93.50
21672;DHT22;10997;52.242;8.168;2023-05-29T21:35:06;11.60;94.20
21672;DHT22;10997;52.242;8.168;2023-05-29T21:40:07;11.50;95.00
21672;DHT22;10997;52.242;8.168;2023-05-29T21:45:10;11.40;95.70
21672;DHT22;10997;52.242;8.168;2023-05-29T21:50:11;11.40;96.50
21672;DHT22;10997;52.242;8.168;2023-05-29T21:55:12;11.30;97.30
21672;DHT22;10997;52.242;8.168;2023-05-29T22:00:13;11.30;98.10
21672;DHT22;10997;52.242;8.168;2023-05-29T22:05:13;11.20;98.80
21672;DHT22;10997;52.242;8.168;2023-05-29T22:10:14;11.10;99.90
21672;DHT22;10997;52.242;8.168;2023-05-29T22:15:14;11.10;99.90
21672;DHT22;10997;52.242;8.168;2023-05-29T22:20:15;11.00;99.90
21672;DHT22;10997;52.242;8.168;2023-05-29T22:25:16;10.90;99.90
21672;DHT22;10997;52.242;8.168;2023-05-29T22:30:16;10.80;99.90
21672;DHT22;10997;52.242;8.168;2023-05-29T22:35:17;10.80;99.90
21672;DHT22;10997;52.242;8.168;2023-05-29T22:40:18;10.80;99.90
21672;DHT22;10997;52.242;8.168;2023-05-29T22:45:19;10.70;99.90
21672;DHT22;10997;52.242;8.168;2023-05-29T22:50:20;10.60;99.90
21672;DHT22;10997;52.242;8.168;2023-05-29T22:55:20;10.60;99.90
21672;DHT22;10997;52.242;8.168;2023-05-29T23:00:21;10.60;99.90
21672;DHT22;10997;52.242;8.168;2023-05-29T23:05:23;10.60;99.90
21672;DHT22;10997;52.242;8.168;2023-05-29T23:10:24;10.50;99.90
21672;DHT22;10997;52.242;8.168;2023-05-29T23:15:24;10.30;99.90
21672;DHT22;10997;52.242;8.168;2023-05-29T23:20:25;10.30;99.90
21672;DHT22;10997;52.242;8.168;2023-05-29T23:25:26;10.30;99.90
21672;DHT22;10997;52.242;8.168;2023-05-29T23:30:27;10.30;99.90
21672;DHT22;10997;52.242;8.168;2023-05-29T23:35:28;10.20;99.90
21672;DHT22;10997;52.242;8.168;2023-05-29T23:40:28;10.20;99.90
21672;DHT22;10997;52.242;8.168;2023-05-29T23:45:31;10.30;99.90
21672;DHT22;10997;52.242;8.168;2023-05-29T23:50:31;10.20;99.90
21672;DHT22;10997;52.242;8.168;2023-05-29T23:55:32;10.00;99.90
